sensor_id;sensor_type;location;lat;lon;timestamp;temperature;humidity
71396;DHT22;59888;55.814;37.132;2022-08-07T00:00:11;25.16;43.66
71396;DHT22;59888;55.814;37.132;2022-08-07T00:02:40;25.15;43.58
71396;DHT22;59888;55.814;37.132;2022-08-07T00:05:06;25.13;43.76
71396;DHT22;59888;55.814;37.132;2022-08-07T00:07:32;25.12;43.66
71396;DHT22;59888;55.814;37.132;2022-08-07T00:09:58;25.12;43.89
71396;DHT22;59888;55.814;37.132;2022-08-07T00:12:24;25.10;43.74
71396;DHT22;59888;55.814;37.132;2022-08-07T00:14:50;25.10;43.61
71396;DHT22;59888;55.814;37.132;2022-08-07T00:17:16;25.10;43.64
71396;DHT22;59888;55.814;37.132;2022-08-07T00:19:42;25.05;43.92
71396;DHT22;59888;55.814;37.132;2022-08-07T00:22:07;25.04;43.80
71396;DHT22;59888;55.814;37.132;2022-08-07T00:24:33;25.04;43.85
71396;DHT22;59888;55.814;37.132;2022-08-07T00:26:59;25.04;43.87
71396;DHT22;59888;55.814;37.132;2022-08-07T00:29:25;25.00;43.89
71396;DHT22;59888;55.814;37.132;2022-08-07T00:31:53;24.97;43.77
71396;DHT22;59888;55.814;37.132;2022-08-07T00:34:20;24.94;44.16
71396;DHT22;59888;55.814;37.132;2022-08-07T00:36:45;24.92;44.57
71396;DHT22;59888;55.814;37.132;2022-08-07T00:39:12;24.87;44.93
71396;DHT22;59888;55.814;37.132;2022-08-07T00:41:38;24.84;45.09
71396;DHT22;59888;55.814;37.132;2022-08-07T00:44:05;24.75;45.14
71396;DHT22;59888;55.814;37.132;2022-08-07T00:46:31;24.70;45.35
71396;DHT22;59888;55.814;37.132;2022-08-07T00:48:57;24.68;45.30
71396;DHT22;59888;55.814;37.132;2022-08-07T00:51:28;24.64;45.32
71396;DHT22;59888;55.814;37.132;2022-08-07T00:53:54;24.57;45.34
71396;DHT22;59888;55.814;37.132;2022-08-07T00:56:21;24.53;45.41
71396;DHT22;59888;55.814;37.132;2022-08-07T00:58:47;24.50;45.38
71396;DHT22;59888;55.814;37.132;2022-08-07T01:01:13;24.48;45.31
71396;DHT22;59888;55.814;37.132;2022-08-07T01:03:39;24.44;45.40
71396;DHT22;59888;55.814;37.132;2022-08-07T01:06:06;24.45;45.28
71396;DHT22;59888;55.814;37.132;2022-08-07T01:08:32;24.41;45.28
71396;DHT22;59888;55.814;37.132;2022-08-07T01:10:59;24.40;45.32
71396;DHT22;59888;55.814;37.132;2022-08-07T01:13:25;24.41;45.40
71396;DHT22;59888;55.814;37.132;2022-08-07T01:15:51;24.42;45.14
71396;DHT22;59888;55.814;37.132;2022-08-07T01:18:17;24.42;45.36
71396;DHT22;59888;55.814;37.132;2022-08-07T01:20:52;24.42;45.77
71396;DHT22;59888;55.814;37.132;2022-08-07T01:23:19;24.43;45.03
71396;DHT22;59888;55.814;37.132;2022-08-07T01:25:45;24.42;45.42
71396;DHT22;59888;55.814;37.132;2022-08-07T01:28:12;24.35;45.64
71396;DHT22;59888;55.814;37.132;2022-08-07T01:30:39;24.28;45.89
71396;DHT22;59888;55.814;37.132;2022-08-07T01:33:05;24.26;45.98
71396;DHT22;59888;55.814;37.132;2022-08-07T01:35:32;24.26;45.99
71396;DHT22;59888;55.814;37.132;2022-08-07T01:37:58;24.21;46.26
71396;DHT22;59888;55.814;37.132;2022-08-07T01:40:25;24.23;46.47
71396;DHT22;59888;55.814;37.132;2022-08-07T01:42:58;24.21;46.25
71396;DHT22;59888;55.814;37.132;2022-08-07T01:45:24;24.23;46.55
71396;DHT22;59888;55.814;37.132;2022-08-07T01:47:53;24.16;46.33
71396;DHT22;59888;55.814;37.132;2022-08-07T01:50:21;24.10;46.64
71396;DHT22;59888;55.814;37.132;2022-08-07T01:52:51;24.05;46.85
71396;DHT22;59888;55.814;37.132;2022-08-07T01:55:23;24.02;46.63
71396;DHT22;59888;55.814;37.132;2022-08-07T01:57:55;23.95;47.13
71396;DHT22;59888;55.814;37.132;2022-08-07T02:00:26;23.91;47.05
71396;DHT22;59888;55.814;37.132;2022-08-07T02:02:57;23.95;47.09
71396;DHT22;59888;55.814;37.132;2022-08-07T02:05:33;23.90;47.44
71396;DHT22;59888;55.814;37.132;2022-08-07T02:08:05;23.92;47.22
71396;DHT22;59888;55.814;37.132;2022-08-07T02:10:36;23.96;47.01
71396;DHT22;59888;55.814;37.132;2022-08-07T02:13:28;23.96;46.95
71396;DHT22;59888;55.814;37.132;2022-08-07T02:15:57;23.92;47.05
71396;DHT22;59888;55.814;37.132;2022-08-07T02:18:27;23.99;47.10
71396;DHT22;59888;55.814;37.132;2022-08-07T02:20:58;24.02;46.98
71396;DHT22;59888;55.814;37.132;2022-08-07T02:23:25;24.03;46.54
71396;DHT22;59888;55.814;37.132;2022-08-07T02:25:54;24.11;46.53
71396;DHT22;59888;55.814;37.132;2022-08-07T02:28:22;24.14;46.32
71396;DHT22;59888;55.814;37.132;2022-08-07T02:30:51;24.18;46.29
71396;DHT22;59888;55.814;37.132;2022-08-07T02:33:18;24.23;46.15
71396;DHT22;59888;55.814;37.132;2022-08-07T02:35:45;24.28;46.06
71396;DHT22;59888;55.814;37.132;2022-08-07T02:38:15;24.33;46.21
71396;DHT22;59888;55.814;37.132;2022-08-07T02:40:41;24.39;45.72
71396;DHT22;59888;55.814;37.132;2022-08-07T02:43:11;24.45;45.96
71396;DHT22;59888;55.814;37.132;2022-08-07T02:45:41;24.49;45.62
71396;DHT22;59888;55.814;37.132;2022-08-07T02:48:08;24.53;45.56
71396;DHT22;59888;55.814;37.132;2022-08-07T02:50:41;24.59;45.90
71396;DHT22;59888;55.814;37.132;2022-08-07T02:53:15;24.64;46.02
71396;DHT22;59888;55.814;37.132;2022-08-07T02:55:44;24.72;45.35
71396;DHT22;59888;55.814;37.132;2022-08-07T02:58:16;24.75;45.14
71396;DHT22;59888;55.814;37.132;2022-08-07T03:00:44;24.82;44.99
71396;DHT22;59888;55.814;37.132;2022-08-07T03:03:11;24.91;45.03
71396;DHT22;59888;55.814;37.132;2022-08-07T03:05:42;24.98;44.86
71396;DHT22;59888;55.814;37.132;2022-08-07T03:08:09;25.03;44.70
71396;DHT22;59888;55.814;37.132;2022-08-07T03:10:38;25.05;44.64
71396;DHT22;59888;55.814;37.132;2022-08-07T03:13:05;25.06;44.64
71396;DHT22;59888;55.814;37.132;2022-08-07T03:15:31;25.07;44.45
71396;DHT22;59888;55.814;37.132;2022-08-07T03:17:58;25.07;44.23
71396;DHT22;59888;55.814;37.132;2022-08-07T03:20:25;25.08;44.29
71396;DHT22;59888;55.814;37.132;2022-08-07T03:22:52;25.13;44.32
71396;DHT22;59888;55.814;37.132;2022-08-07T03:25:18;25.13;43.47
71396;DHT22;59888;55.814;37.132;2022-08-07T03:28:09;25.08;44.80
71396;DHT22;59888;55.814;37.132;2022-08-07T03:30:37;25.14;44.13
71396;DHT22;59888;55.814;37.132;2022-08-07T03:33:05;25.21;44.09
71396;DHT22;59888;55.814;37.132;2022-08-07T03:35:34;25.27;44.15
71396;DHT22;59888;55.814;37.132;2022-08-07T03:38:04;25.34;43.93
71396;DHT22;59888;55.814;37.132;2022-08-07T03:40:31;25.40;43.91
71396;DHT22;59888;55.814;37.132;2022-08-07T03:42:59;25.48;43.70
71396;DHT22;59888;55.814;37.132;2022-08-07T03:45:27;25.61;43.71
71396;DHT22;59888;55.814;37.132;2022-08-07T03:47:58;25.73;43.31
71396;DHT22;59888;55.814;37.132;2022-08-07T03:50:25;25.81;43.21
71396;DHT22;59888;55.814;37.132;2022-08-07T03:52:56;25.83;42.92
71396;DHT22;59888;55.814;37.132;2022-08-07T03:55:23;25.87;43.03
71396;DHT22;59888;55.814;37.132;2022-08-07T03:57:49;25.98;42.98
71396;DHT22;59888;55.814;37.132;2022-08-07T04:00:17;26.10;42.79
71396;DHT22;59888;55.814;37.132;2022-08-07T04:02:47;26.23;42.52
71396;DHT22;59888;55.814;37.132;2022-08-07T04:05:22;26.38;42.41
71396;DHT22;59888;55.814;37.132;2022-08-07T04:07:50;26.48;42.08
71396;DHT22;59888;55.814;37.132;2022-08-07T04:10:20;26.54;41.93
71396;DHT22;59888;55.814;37.132;2022-08-07T04:12:48;26.53;42.05
71396;DHT22;59888;55.814;37.132;2022-08-07T04:15:15;26.61;41.87
71396;DHT22;59888;55.814;37.132;2022-08-07T04:17:43;26.65;41.88
71396;DHT22;59888;55.814;37.132;2022-08-07T04:20:10;26.61;41.77
71396;DHT22;59888;55.814;37.132;2022-08-07T04:22:39;26.66;41.96
71396;DHT22;59888;55.814;37.132;2022-08-07T04:25:08;26.70;41.45
71396;DHT22;59888;55.814;37.132;2022-08-07T04:27:34;26.80;41.68
71396;DHT22;59888;55.814;37.132;2022-08-07T04:30:02;26.95;41.49
71396;DHT22;59888;55.814;37.132;2022-08-07T04:32:48;27.11;41.39
71396;DHT22;59888;55.814;37.132;2022-08-07T04:35:16;27.24;41.04
71396;DHT22;59888;55.814;37.132;2022-08-07T04:37:44;27.29;41.10
71396;DHT22;59888;55.814;37.132;2022-08-07T04:40:11;27.41;40.97
71396;DHT22;59888;55.814;37.132;2022-08-07T04:42:37;27.52;40.78
71396;DHT22;59888;55.814;37.132;2022-08-07T04:45:03;27.63;40.70
71396;DHT22;59888;55.814;37.132;2022-08-07T04:47:57;27.78;40.88
71396;DHT22;59888;55.814;37.132;2022-08-07T04:50:36;27.46;41.26
71396;DHT22;59888;55.814;37.132;2022-08-07T04:53:24;27.39;41.32
71396;DHT22;59888;55.814;37.132;2022-08-07T04:56:23;27.46;41.54
71396;DHT22;59888;55.814;37.132;2022-08-07T04:58:59;27.61;41.06
71396;DHT22;59888;55.814;37.132;2022-08-07T05:01:43;27.72;41.20
71396;DHT22;59888;55.814;37.132;2022-08-07T05:04:17;27.85;40.51
71396;DHT22;59888;55.814;37.132;2022-08-07T05:12:07;27.91;40.08
71396;DHT22;59888;55.814;37.132;2022-08-07T05:14:40;28.03;40.22
71396;DHT22;59888;55.814;37.132;2022-08-07T05:17:11;28.17;40.31
71396;DHT22;59888;55.814;37.132;2022-08-07T05:19:46;28.08;40.22
71396;DHT22;59888;55.814;37.132;2022-08-07T05:22:16;28.23;40.18
71396;DHT22;59888;55.814;37.132;2022-08-07T05:24:44;28.39;39.77
71396;DHT22;59888;55.814;37.132;2022-08-07T05:27:14;28.46;39.64
71396;DHT22;59888;55.814;37.132;2022-08-07T05:29:42;28.55;39.80
71396;DHT22;59888;55.814;37.132;2022-08-07T05:32:10;28.68;39.52
71396;DHT22;59888;55.814;37.132;2022-08-07T05:34:36;28.72;39.45
71396;DHT22;59888;55.814;37.132;2022-08-07T05:37:04;28.87;39.36
71396;DHT22;59888;55.814;37.132;2022-08-07T05:39:42;29.05;39.12
71396;DHT22;59888;55.814;37.132;2022-08-07T05:42:09;29.26;38.98
71396;DHT22;59888;55.814;37.132;2022-08-07T05:44:38;29.45;38.67
71396;DHT22;59888;55.814;37.132;2022-08-07T05:47:05;29.45;38.46
71396;DHT22;59888;55.814;37.132;2022-08-07T05:49:33;29.38;38.60
71396;DHT22;59888;55.814;37.132;2022-08-07T05:52:01;29.52;38.38
71396;DHT22;59888;55.814;37.132;2022-08-07T05:54:29;29.63;38.20
71396;DHT22;59888;55.814;37.132;2022-08-07T05:56:55;29.56;38.20
71396;DHT22;59888;55.814;37.132;2022-08-07T05:59:24;29.32;38.27
71396;DHT22;59888;55.814;37.132;2022-08-07T06:01:57;29.24;38.54
71396;DHT22;59888;55.814;37.132;2022-08-07T06:04:24;29.27;38.41
71396;DHT22;59888;55.814;37.132;2022-08-07T06:06:51;29.37;38.47
71396;DHT22;59888;55.814;37.132;2022-08-07T06:09:18;29.36;38.33
71396;DHT22;59888;55.814;37.132;2022-08-07T06:11:46;29.46;38.30
71396;DHT22;59888;55.814;37.132;2022-08-07T06:14:14;29.62;38.12
71396;DHT22;59888;55.814;37.132;2022-08-07T06:16:45;29.68;38.12
71396;DHT22;59888;55.814;37.132;2022-08-07T06:19:12;29.91;37.88
71396;DHT22;59888;55.814;37.132;2022-08-07T06:21:38;30.12;37.53
71396;DHT22;59888;55.814;37.132;2022-08-07T06:24:06;30.30;37.27
71396;DHT22;59888;55.814;37.132;2022-08-07T06:26:32;30.41;37.12
71396;DHT22;59888;55.814;37.132;2022-08-07T06:28:58;30.54;36.97
71396;DHT22;59888;55.814;37.132;2022-08-07T06:31:27;30.49;36.76
71396;DHT22;59888;55.814;37.132;2022-08-07T06:33:55;30.32;37.08
71396;DHT22;59888;55.814;37.132;2022-08-07T06:36:21;30.37;37.03
71396;DHT22;59888;55.814;37.132;2022-08-07T06:38:52;30.28;36.92
71396;DHT22;59888;55.814;37.132;2022-08-07T06:41:39;30.11;37.43
71396;DHT22;59888;55.814;37.132;2022-08-07T06:44:10;29.96;37.44
71396;DHT22;59888;55.814;37.132;2022-08-07T06:46:38;29.88;37.47
71396;DHT22;59888;55.814;37.132;2022-08-07T06:49:05;29.82;37.99
71396;DHT22;59888;55.814;37.132;2022-08-07T06:51:34;29.71;38.15
71396;DHT22;59888;55.814;37.132;2022-08-07T06:54:06;29.72;37.78
71396;DHT22;59888;55.814;37.132;2022-08-07T06:56:36;29.80;37.68
71396;DHT22;59888;55.814;37.132;2022-08-07T06:59:31;30.18;37.84
71396;DHT22;59888;55.814;37.132;2022-08-07T07:02:01;30.45;37.00
71396;DHT22;59888;55.814;37.132;2022-08-07T07:04:29;30.42;36.86
71396;DHT22;59888;55.814;37.132;2022-08-07T07:06:56;30.34;36.95
71396;DHT22;59888;55.814;37.132;2022-08-07T07:09:24;30.60;36.85
71396;DHT22;59888;55.814;37.132;2022-08-07T07:20:28;31.31;35.24
71396;DHT22;59888;55.814;37.132;2022-08-07T07:22:56;31.27;35.40
71396;DHT22;59888;55.814;37.132;2022-08-07T07:25:23;31.12;35.45
71396;DHT22;59888;55.814;37.132;2022-08-07T07:27:56;31.06;35.89
71396;DHT22;59888;55.814;37.132;2022-08-07T07:30:25;31.24;35.66
71396;DHT22;59888;55.814;37.132;2022-08-07T07:32:54;31.43;35.34
71396;DHT22;59888;55.814;37.132;2022-08-07T07:35:23;31.46;35.23
71396;DHT22;59888;55.814;37.132;2022-08-07T07:37:50;31.52;35.11
71396;DHT22;59888;55.814;37.132;2022-08-07T07:40:19;31.49;35.32
71396;DHT22;59888;55.814;37.132;2022-08-07T07:42:55;31.54;35.09
71396;DHT22;59888;55.814;37.132;2022-08-07T07:45:25;31.46;35.16
71396;DHT22;59888;55.814;37.132;2022-08-07T07:47:52;31.42;35.16
71396;DHT22;59888;55.814;37.132;2022-08-07T07:50:21;31.24;35.46
71396;DHT22;59888;55.814;37.132;2022-08-07T07:52:48;31.15;35.39
71396;DHT22;59888;55.814;37.132;2022-08-07T07:55:17;31.19;35.44
71396;DHT22;59888;55.814;37.132;2022-08-07T07:57:44;31.31;35.23
71396;DHT22;59888;55.814;37.132;2022-08-07T08:00:12;31.30;35.25
71396;DHT22;59888;55.814;37.132;2022-08-07T08:02:39;31.27;35.40
71396;DHT22;59888;55.814;37.132;2022-08-07T08:05:08;31.13;35.38
71396;DHT22;59888;55.814;37.132;2022-08-07T08:07:35;31.15;35.47
71396;DHT22;59888;55.814;37.132;2022-08-07T08:10:03;31.27;35.41
71396;DHT22;59888;55.814;37.132;2022-08-07T08:12:30;31.22;35.40
71396;DHT22;59888;55.814;37.132;2022-08-07T08:14:57;31.06;35.61
71396;DHT22;59888;55.814;37.132;2022-08-07T08:17:23;30.93;35.77
71396;DHT22;59888;55.814;37.132;2022-08-07T08:19:52;30.77;35.97
71396;DHT22;59888;55.814;37.132;2022-08-07T08:22:20;30.81;36.01
71396;DHT22;59888;55.814;37.132;2022-08-07T08:25:05;30.82;35.92
71396;DHT22;59888;55.814;37.132;2022-08-07T08:27:53;30.90;35.96
71396;DHT22;59888;55.814;37.132;2022-08-07T08:30:20;30.98;35.84
71396;DHT22;59888;55.814;37.132;2022-08-07T08:32:51;30.96;35.91
71396;DHT22;59888;55.814;37.132;2022-08-07T08:35:23;31.19;35.79
71396;DHT22;59888;55.814;37.132;2022-08-07T08:37:55;31.41;35.57
71396;DHT22;59888;55.814;37.132;2022-08-07T08:40:27;31.72;35.27
71396;DHT22;59888;55.814;37.132;2022-08-07T08:46:00;32.18;34.54
71396;DHT22;59888;55.814;37.132;2022-08-07T08:49:15;32.34;34.44
71396;DHT22;59888;55.814;37.132;2022-08-07T08:51:25;32.54;34.13
71396;DHT22;59888;55.814;37.132;2022-08-07T08:53:56;0.00;33.97
71396;DHT22;59888;55.814;37.132;2022-08-07T08:56:29;32.85;33.76
71396;DHT22;59888;55.814;37.132;2022-08-07T09:02:22;33.01;33.40
71396;DHT22;59888;55.814;37.132;2022-08-07T09:15:50;33.79;32.44
71396;DHT22;59888;55.814;37.132;2022-08-07T09:35:17;33.80;30.42
71396;DHT22;59888;55.814;37.132;2022-08-07T09:37:57;33.80;29.94
71396;DHT22;59888;55.814;37.132;2022-08-07T09:54:15;33.50;29.96
71396;DHT22;59888;55.814;37.132;2022-08-07T10:00:04;33.41;28.51
71396;DHT22;59888;55.814;37.132;2022-08-07T10:02:55;33.35;30.29
71396;DHT22;59888;55.814;37.132;2022-08-07T10:23:39;30.54;36.15
71396;DHT22;59888;55.814;37.132;2022-08-07T10:32:20;30.09;36.76
71396;DHT22;59888;55.814;37.132;2022-08-07T10:35:04;29.81;37.53
71396;DHT22;59888;55.814;37.132;2022-08-07T10:37:45;29.50;38.01
71396;DHT22;59888;55.814;37.132;2022-08-07T10:40:30;29.24;38.33
71396;DHT22;59888;55.814;37.132;2022-08-07T10:43:04;29.02;38.69
71396;DHT22;59888;55.814;37.132;2022-08-07T10:45:37;28.75;39.62
71396;DHT22;59888;55.814;37.132;2022-08-07T10:48:24;28.69;39.14
71396;DHT22;59888;55.814;37.132;2022-08-07T10:50:54;28.50;40.04
71396;DHT22;59888;55.814;37.132;2022-08-07T10:53:30;28.21;41.02
71396;DHT22;59888;55.814;37.132;2022-08-07T10:56:03;27.93;40.91
71396;DHT22;59888;55.814;37.132;2022-08-07T10:58:41;27.64;41.51
71396;DHT22;59888;55.814;37.132;2022-08-07T11:06:27;26.66;44.24
71396;DHT22;59888;55.814;37.132;2022-08-07T11:09:02;26.46;46.13
71396;DHT22;59888;55.814;37.132;2022-08-07T11:11:42;25.97;52.65
71396;DHT22;59888;55.814;37.132;2022-08-07T11:14:21;25.35;48.62
71396;DHT22;59888;55.814;37.132;2022-08-07T11:17:18;25.02;46.05
71396;DHT22;59888;55.814;37.132;2022-08-07T11:25:05;24.09;52.42
71396;DHT22;59888;55.814;37.132;2022-08-07T11:27:59;23.84;54.49
71396;DHT22;59888;55.814;37.132;2022-08-07T11:30:33;23.59;59.96
71396;DHT22;59888;55.814;37.132;2022-08-07T11:33:16;23.54;53.78
71396;DHT22;59888;55.814;37.132;2022-08-07T11:39:22;23.46;57.02
71396;DHT22;59888;55.814;37.132;2022-08-07T11:41:54;23.50;55.94
71396;DHT22;59888;55.814;37.132;2022-08-07T11:44:30;23.42;54.69
71396;DHT22;59888;55.814;37.132;2022-08-07T11:50:02;23.51;55.03
71396;DHT22;59888;55.814;37.132;2022-08-07T11:55:40;23.84;52.69
71396;DHT22;59888;55.814;37.132;2022-08-07T11:58:43;23.99;52.97
71396;DHT22;59888;55.814;37.132;2022-08-07T12:01:26;24.01;52.36
71396;DHT22;59888;55.814;37.132;2022-08-07T12:06:58;24.08;52.54
71396;DHT22;59888;55.814;37.132;2022-08-07T12:09:34;23.99;53.12
71396;DHT22;59888;55.814;37.132;2022-08-07T12:14:29;23.91;52.69
71396;DHT22;59888;55.814;37.132;2022-08-07T12:17:11;23.97;51.98
71396;DHT22;59888;55.814;37.132;2022-08-07T12:19:52;24.06;51.63
71396;DHT22;59888;55.814;37.132;2022-08-07T12:22:31;24.09;52.54
71396;DHT22;59888;55.814;37.132;2022-08-07T12:25:10;24.19;51.21
71396;DHT22;59888;55.814;37.132;2022-08-07T12:28:00;24.15;52.20
71396;DHT22;59888;55.814;37.132;2022-08-07T12:30:32;24.23;51.62
71396;DHT22;59888;55.814;37.132;2022-08-07T12:33:26;24.40;51.98
71396;DHT22;59888;55.814;37.132;2022-08-07T12:35:54;24.47;51.50
71396;DHT22;59888;55.814;37.132;2022-08-07T12:38:22;24.46;50.95
71396;DHT22;59888;55.814;37.132;2022-08-07T12:40:51;24.41;51.63
71396;DHT22;59888;55.814;37.132;2022-08-07T12:43:21;24.48;51.78
71396;DHT22;59888;55.814;37.132;2022-08-07T12:48:44;24.92;50.18
71396;DHT22;59888;55.814;37.132;2022-08-07T12:51:15;25.28;50.31
71396;DHT22;59888;55.814;37.132;2022-08-07T12:56:41;26.47;48.82
71396;DHT22;59888;55.814;37.132;2022-08-07T12:59:21;27.46;47.71
71396;DHT22;59888;55.814;37.132;2022-08-07T13:02:11;28.53;46.14
71396;DHT22;59888;55.814;37.132;2022-08-07T13:04:56;29.68;44.33
71396;DHT22;59888;55.814;37.132;2022-08-07T13:12:58;29.95;42.19
71396;DHT22;59888;55.814;37.132;2022-08-07T13:15:45;29.36;43.25
71396;DHT22;59888;55.814;37.132;2022-08-07T13:21:26;28.62;44.47
71396;DHT22;59888;55.814;37.132;2022-08-07T13:26:40;28.04;44.09
71396;DHT22;59888;55.814;37.132;2022-08-07T13:29:14;27.83;45.35
71396;DHT22;59888;55.814;37.132;2022-08-07T13:31:52;27.59;46.96
71396;DHT22;59888;55.814;37.132;2022-08-07T13:37:32;27.42;45.54
71396;DHT22;59888;55.814;37.132;2022-08-07T13:40:14;27.24;47.02
71396;DHT22;59888;55.814;37.132;2022-08-07T13:42:42;27.06;46.68
71396;DHT22;59888;55.814;37.132;2022-08-07T13:45:09;27.35;46.53
71396;DHT22;59888;55.814;37.132;2022-08-07T13:47:37;27.45;46.26
71396;DHT22;59888;55.814;37.132;2022-08-07T13:50:06;27.52;46.09
71396;DHT22;59888;55.814;37.132;2022-08-07T13:52:36;27.91;46.36
71396;DHT22;59888;55.814;37.132;2022-08-07T13:55:14;28.65;45.64
71396;DHT22;59888;55.814;37.132;2022-08-07T13:57:43;29.73;44.09
71396;DHT22;59888;55.814;37.132;2022-08-07T14:00:10;30.65;42.58
71396;DHT22;59888;55.814;37.132;2022-08-07T14:02:40;31.61;41.40
71396;DHT22;59888;55.814;37.132;2022-08-07T14:05:10;32.38;39.27
71396;DHT22;59888;55.814;37.132;2022-08-07T14:07:46;32.31;39.09
71396;DHT22;59888;55.814;37.132;2022-08-07T14:10:13;31.81;39.17
71396;DHT22;59888;55.814;37.132;2022-08-07T14:12:51;31.37;39.43
71396;DHT22;59888;55.814;37.132;2022-08-07T14:18:01;30.63;40.20
71396;DHT22;59888;55.814;37.132;2022-08-07T14:20:30;30.38;40.51
71396;DHT22;59888;55.814;37.132;2022-08-07T14:23:07;30.23;40.81
71396;DHT22;59888;55.814;37.132;2022-08-07T14:25:37;29.87;40.96
71396;DHT22;59888;55.814;37.132;2022-08-07T14:28:07;29.57;41.33
71396;DHT22;59888;55.814;37.132;2022-08-07T14:30:36;29.39;41.60
71396;DHT22;59888;55.814;37.132;2022-08-07T14:33:03;29.21;41.81
71396;DHT22;59888;55.814;37.132;2022-08-07T14:35:32;29.03;41.90
71396;DHT22;59888;55.814;37.132;2022-08-07T14:37:59;28.84;42.06
71396;DHT22;59888;55.814;37.132;2022-08-07T14:40:27;28.63;42.37
71396;DHT22;59888;55.814;37.132;2022-08-07T14:42:58;28.41;42.68
71396;DHT22;59888;55.814;37.132;2022-08-07T14:48:13;28.16;43.11
71396;DHT22;59888;55.814;37.132;2022-08-07T14:50:44;28.05;43.35
71396;DHT22;59888;55.814;37.132;2022-08-07T14:53:12;27.94;43.55
71396;DHT22;59888;55.814;37.132;2022-08-07T14:55:40;27.83;43.60
71396;DHT22;59888;55.814;37.132;2022-08-07T14:58:10;27.71;43.89
71396;DHT22;59888;55.814;37.132;2022-08-07T15:00:41;27.56;44.23
71396;DHT22;59888;55.814;37.132;2022-08-07T15:03:09;27.42;44.41
71396;DHT22;59888;55.814;37.132;2022-08-07T15:05:37;27.38;44.35
71396;DHT22;59888;55.814;37.132;2022-08-07T15:08:06;27.29;44.32
71396;DHT22;59888;55.814;37.132;2022-08-07T15:10:34;27.15;44.41
71396;DHT22;59888;55.814;37.132;2022-08-07T15:13:07;27.07;44.73
71396;DHT22;59888;55.814;37.132;2022-08-07T15:15:41;26.95;45.25
71396;DHT22;59888;55.814;37.132;2022-08-07T15:18:22;26.96;45.42
71396;DHT22;59888;55.814;37.132;2022-08-07T15:20:51;26.90;45.35
71396;DHT22;59888;55.814;37.132;2022-08-07T15:23:37;26.87;45.91
71396;DHT22;59888;55.814;37.132;2022-08-07T15:26:06;26.82;45.35
71396;DHT22;59888;55.814;37.132;2022-08-07T15:28:34;26.80;45.24
71396;DHT22;59888;55.814;37.132;2022-08-07T15:31:07;26.76;45.40
71396;DHT22;59888;55.814;37.132;2022-08-07T15:33:34;26.71;45.38
71396;DHT22;59888;55.814;37.132;2022-08-07T15:36:05;26.69;45.32
71396;DHT22;59888;55.814;37.132;2022-08-07T15:38:36;26.63;45.44
71396;DHT22;59888;55.814;37.132;2022-08-07T15:41:08;26.53;45.39
71396;DHT22;59888;55.814;37.132;2022-08-07T15:43:35;26.49;45.36
71396;DHT22;59888;55.814;37.132;2022-08-07T15:46:18;26.43;45.99
71396;DHT22;59888;55.814;37.132;2022-08-07T15:48:48;26.40;45.99
71396;DHT22;59888;55.814;37.132;2022-08-07T15:51:15;26.38;45.98
71396;DHT22;59888;55.814;37.132;2022-08-07T15:53:46;26.35;46.03
71396;DHT22;59888;55.814;37.132;2022-08-07T15:56:13;26.38;46.16
71396;DHT22;59888;55.814;37.132;2022-08-07T15:58:53;26.37;47.18
71396;DHT22;59888;55.814;37.132;2022-08-07T16:03:58;26.26;46.93
71396;DHT22;59888;55.814;37.132;2022-08-07T16:06:36;26.13;47.14
71396;DHT22;59888;55.814;37.132;2022-08-07T16:26:02;26.07;48.08
71396;DHT22;59888;55.814;37.132;2022-08-07T16:34:21;25.92;48.21
71396;DHT22;59888;55.814;37.132;2022-08-07T16:40:26;25.89;48.31
71396;DHT22;59888;55.814;37.132;2022-08-07T16:42:50;25.78;48.85
71396;DHT22;59888;55.814;37.132;2022-08-07T16:50:57;25.48;49.48
71396;DHT22;59888;55.814;37.132;2022-08-07T16:53:42;25.34;48.73
71396;DHT22;59888;55.814;37.132;2022-08-07T16:56:30;25.19;50.27
71396;DHT22;59888;55.814;37.132;2022-08-07T16:59:07;25.17;49.92
71396;DHT22;59888;55.814;37.132;2022-08-07T17:01:50;25.15;49.44
71396;DHT22;59888;55.814;37.132;2022-08-07T17:07:21;24.93;51.93
71396;DHT22;59888;55.814;37.132;2022-08-07T17:09:54;24.86;51.59
71396;DHT22;59888;55.814;37.132;2022-08-07T17:15:06;24.76;52.17
71396;DHT22;59888;55.814;37.132;2022-08-07T17:17:54;24.70;51.99
71396;DHT22;59888;55.814;37.132;2022-08-07T17:20:27;24.72;51.13
71396;DHT22;59888;55.814;37.132;2022-08-07T17:23:26;24.70;52.04
71396;DHT22;59888;55.814;37.132;2022-08-07T17:29:00;24.54;51.86
71396;DHT22;59888;55.814;37.132;2022-08-07T17:34:48;24.40;51.86
71396;DHT22;59888;55.814;37.132;2022-08-07T17:37:26;24.40;51.86
71396;DHT22;59888;55.814;37.132;2022-08-07T17:40:08;24.40;52.28
71396;DHT22;59888;55.814;37.132;2022-08-07T17:42:54;24.40;51.72
71396;DHT22;59888;55.814;37.132;2022-08-07T17:45:55;24.39;53.15
71396;DHT22;59888;55.814;37.132;2022-08-07T17:48:32;24.39;52.61
71396;DHT22;59888;55.814;37.132;2022-08-07T17:51:23;24.35;52.92
71396;DHT22;59888;55.814;37.132;2022-08-07T17:56:39;24.17;52.95
71396;DHT22;59888;55.814;37.132;2022-08-07T17:59:22;23.99;53.36
71396;DHT22;59888;55.814;37.132;2022-08-07T18:02:03;23.96;53.60
71396;DHT22;59888;55.814;37.132;2022-08-07T18:04:41;24.01;53.52
71396;DHT22;59888;55.814;37.132;2022-08-07T18:07:27;23.99;53.65
71396;DHT22;59888;55.814;37.132;2022-08-07T18:15:40;23.95;54.55
71396;DHT22;59888;55.814;37.132;2022-08-07T18:18:10;23.89;53.28
71396;DHT22;59888;55.814;37.132;2022-08-07T18:20:42;23.84;53.52
71396;DHT22;59888;55.814;37.132;2022-08-07T18:23:16;23.82;53.92
71396;DHT22;59888;55.814;37.132;2022-08-07T18:25:48;23.79;53.33
71396;DHT22;59888;55.814;37.132;2022-08-07T18:28:29;23.79;54.08
71396;DHT22;59888;55.814;37.132;2022-08-07T18:31:03;23.79;54.59
71396;DHT22;59888;55.814;37.132;2022-08-07T18:47:37;23.91;54.10
71396;DHT22;59888;55.814;37.132;2022-08-07T18:58:37;23.57;55.61
71396;DHT22;59888;55.814;37.132;2022-08-07T19:01:28;23.41;55.04
71396;DHT22;59888;55.814;37.132;2022-08-07T19:04:00;23.39;54.48
71396;DHT22;59888;55.814;37.132;2022-08-07T19:06:36;23.35;53.62
71396;DHT22;59888;55.814;37.132;2022-08-07T19:09:09;23.35;54.62
71396;DHT22;59888;55.814;37.132;2022-08-07T19:12:28;23.37;54.46
71396;DHT22;59888;55.814;37.132;2022-08-07T19:15:06;23.44;54.93
71396;DHT22;59888;55.814;37.132;2022-08-07T19:17:47;23.42;54.46
71396;DHT22;59888;55.814;37.132;2022-08-07T19:20:20;23.41;54.78
71396;DHT22;59888;55.814;37.132;2022-08-07T19:23:25;23.43;54.94